Latest Weather Observations for Nhill Aerodrome

IDV60801

Issued at 8:05 am EST Thursday 21 August 2014 (issued every 30 minutes, with the page automatically refreshed every 10 minutes)

About weather observations | Map of weather stations | Latest weather observations for VIC | Other Formats
Station Details ID: 078015 Name: NHILL AERODROME Lat: -36.31 Lon: 141.65 Height: 138.9 m
Data from the previous 72 hours. | See also: Recent months at Nhill Aerodrome
Date/Time
EST
Temp
°C
App
Temp
°C
Dew
Point
Rel
Hum
%
Delta-T
°C
Wind Press
QNH
hPa
Press
MSL
hPa
Rain
since 9 am
mm
Dir
 
Spd
km/h
Gust
km/h
Spd
kts
Gust
kts
21/08:00am 1.7 -0.2 0.4 91 0.5 SSE 0 0 0 0 1028.4 1028.6 0.0
21/07:30am -0.1 -2.7 -1.4 91 0.4 SSE 2 7 1 4 1028.0 1028.3 0.0
21/07:00am -0.8 -4.8 -2.2 90 0.4 SSE 9 9 5 5 1027.8 1028.0 0.0
21/06:30am -0.2 -3.7 -1.6 90 0.5 SSE 7 9 4 5 1027.5 1027.7 0.0
21/06:00am 0.6 -1.5 -0.8 90 0.5 SSE 0 6 0 3 1027.3 1027.5 0.0
21/05:30am 1.3 -1.9 -0.2 90 0.5 SSE 6 7 3 4 1027.2 1027.4 0.0
21/05:00am 1.4 -1.9 -0.1 90 0.5 SSE 7 7 4 4 1027.2 1027.4 0.0
21/04:30am 1.7 -1.6 0.2 90 0.6 SSE 7 9 4 5 1027.1 1027.3 0.0
21/04:00am 2.2 -0.8 0.7 90 0.6 SSE 6 7 3 4 1027.1 1027.3 0.0
21/03:30am 1.9 -1.4 0.4 90 0.6 SSE 7 9 4 5 1027.1 1027.3 0.0
21/03:00am 1.6 -1.7 0.0 89 0.6 SSE 7 9 4 5 1027.1 1027.3 0.0
21/02:30am 2.7 -0.4 1.1 89 0.6 SSE 7 9 4 5 1027.2 1027.4 0.0
21/02:00am 2.8 -0.3 1.2 89 0.6 SSE 7 9 4 5 1027.2 1027.4 0.0
21/01:30am 2.5 -0.7 0.6 87 0.7 SSE 7 9 4 5 1027.4 1027.6 0.0
21/01:00am 3.0 -0.1 1.1 87 0.7 SSE 7 9 4 5 1027.4 1027.6 0.0
21/12:30am 2.4 -1.3 0.1 85 0.9 SSE 9 11 5 6 1027.4 1027.6 0.0
21/12:00am 3.7 0.6 1.4 85 0.9 ESE 7 9 4 5 1027.4 1027.6 0.0
 
Date/Time
EST
Temp
°C
App
Temp
°C
Dew
Point
Rel
Hum
%
Delta-T
°C
Wind Press
QNH
hPa
Press
MSL
hPa
Rain
since 9 am
mm
Dir
 
Spd
km/h
Gust
km/h
Spd
kts
Gust
kts
20/11:30pm 3.7 1.9 0.9 82 1.1 CALM 0 0 0 0 1027.6 1027.8 0.0
20/11:00pm 4.6 2.9 1.6 81 1.2 CALM 0 0 0 0 1027.5 1027.7 0.0
20/10:30pm 4.9 2.0 1.6 79 1.3 ESE 6 7 3 4 1027.5 1027.7 0.0
20/10:00pm 5.8 3.0 2.1 77 1.5 ESE 6 7 3 4 1027.4 1027.6 0.0
20/09:30pm 6.9 4.0 2.8 75 1.7 ESE 7 9 4 5 1027.4 1027.6 0.0
20/09:00pm 7.0 3.3 2.5 73 1.9 SE 11 13 6 7 1027.4 1027.6 0.0
20/08:30pm 5.8 2.0 1.9 76 1.6 SE 11 15 6 8 1027.4 1027.6 0.0
20/08:00pm 6.2 2.8 1.9 74 1.7 S 9 11 5 6 1027.3 1027.5 0.0
20/07:30pm 7.1 2.7 2.6 73 1.9 S 15 17 8 9 1027.2 1027.4 0.0
20/07:00pm 8.2 3.8 2.9 69 2.2 S 15 20 8 11 1027.1 1027.3 0.0
20/06:30pm 9.2 4.5 3.0 65 2.7 S 17 24 9 13 1026.9 1027.1 0.0
20/06:00pm 10.3 5.3 3.6 63 2.9 SSE 19 24 10 13 1026.7 1026.9 0.0
20/05:30pm 11.2 8.0 4.9 65 2.9 S 11 15 6 8 1026.4 1026.6 0.0
20/05:00pm 10.4 7.5 4.5 67 2.6 SSE 9 11 5 6 1026.3 1026.5 0.0
20/04:30pm 11.2 8.3 4.4 63 3.1 SSE 9 11 5 6 1026.3 1026.5 0.0
20/04:00pm 12.2 8.6 3.2 54 4.0 SE 11 17 6 9 1026.2 1026.4 0.0
20/03:30pm 12.0 7.8 4.0 58 3.6 SE 15 20 8 11 1026.3 1026.5 0.0
20/03:00pm 11.8 7.2 3.6 57 3.6 SSE 17 24 9 13 1026.2 1026.4 0.0
20/02:30pm 12.1 8.4 4.3 59 3.6 SSE 13 20 7 11 1026.2 1026.4 0.0
20/02:00pm 11.2 6.7 4.0 61 3.2 SSE 17 24 9 13 1026.3 1026.5 0.0
20/01:30pm 10.9 7.9 3.9 62 3.1 SSE 9 20 5 11 1026.7 1026.9 0.0
20/01:00pm 10.6 6.9 4.3 65 2.8 SE 13 19 7 10 1027.0 1027.2 0.0
20/12:30pm 10.3 5.8 4.0 65 2.8 ESE 17 20 9 11 1027.2 1027.4 0.0
20/12:00pm 10.3 6.5 4.0 65 2.8 SSE 13 17 7 9 1027.6 1027.8 0.0
20/11:30am 10.1 6.6 3.6 64 2.9 SE 11 20 6 11 1027.8 1028.0 0.0
20/11:00am 9.7 6.6 3.4 65 2.7 ESE 9 15 5 8 1027.9 1028.1 0.0
20/10:30am 9.4 5.1 3.4 66 2.6 E 15 20 8 11 1028.0 1028.3 0.0
20/10:00am 9.3 5.9 4.1 70 2.3 SSE 11 15 6 8 1027.9 1028.1 0.0
20/09:30am 8.1 5.1 4.1 76 1.8 S 9 11 5 6 1027.9 1028.1 0.0
20/09:00am 6.0 4.6 3.8 86 0.9 CALM 0 0 0 0 1027.7 1027.9 0.0
20/08:30am 3.4 0.5 1.4 87 0.8 SSE 6 7 3 4 1027.4 1027.6 0.0
20/08:00am 2.0 -1.1 0.1 87 0.7 SSE 6 7 3 4 1027.2 1027.4 0.0
20/07:30am 1.2 -2.6 -0.4 89 0.6 SSE 9 11 5 6 1026.9 1027.1 0.0
20/07:00am 0.8 -3.4 -1.0 88 0.6 SSE 11 11 6 6 1026.5 1026.7 0.0
20/06:30am 0.8 -3.4 -1.0 88 0.6 SSE 11 13 6 7 1026.1 1026.3 0.0
20/06:00am 1.0 -3.6 -0.9 87 0.7 SSE 13 15 7 8 1026.0 1026.2 0.0
20/05:30am 2.2 -2.6 0.3 87 0.7 SSE 15 19 8 10 1025.9 1026.1 0.0
20/05:00am 2.0 -2.8 0.1 87 0.7 SSE 15 15 8 8 1025.8 1026.0 0.0
20/04:30am 2.1 -2.7 0.0 86 0.8 SSE 15 17 8 9 1025.6 1025.8 0.0
20/04:00am 2.7 -2.5 0.4 85 0.9 SSE 17 19 9 10 1025.5 1025.7 0.0
20/03:30am 2.8 -2.3 0.5 85 0.9 SSE 17 19 9 10 1025.4 1025.6 0.0
20/03:00am 3.5 -1.5 1.1 84 0.9 SSE 17 19 9 10 1025.6 1025.8 0.0
20/02:30am 3.1 -2.0 0.7 84 0.9 SSE 17 19 9 10 1025.6 1025.8 0.0
20/02:00am 3.3 -1.0 0.7 83 1.0 SSE 13 15 7 8 1025.7 1025.9 0.0
20/01:30am 3.8 -0.5 0.7 80 1.2 SSE 13 15 7 8 1025.8 1026.0 0.0
20/01:00am 4.5 0.5 0.6 76 1.5 S 11 13 6 7 1025.9 1026.1 0.0
20/12:30am 6.5 1.9 1.6 71 2.0 SSE 15 17 8 9 1025.8 1026.0 0.0
20/12:00am 8.3 3.4 2.3 66 2.5 SSE 17 20 9 11 1025.7 1025.9 0.0
 
Date/Time
EST
Temp
°C
App
Temp
°C
Dew
Point
Rel
Hum
%
Delta-T
°C
Wind Press
QNH
hPa
Press
MSL
hPa
Rain
since 9 am
mm
Dir
 
Spd
km/h
Gust
km/h
Spd
kts
Gust
kts
19/11:30pm 9.1 4.2 2.2 62 2.9 SSE 17 24 9 13 1025.7 1025.9 0.0
19/11:00pm 9.3 4.9 2.9 64 2.7 S 15 20 8 11 1025.7 1025.9 0.0
19/10:30pm 9.2 5.3 3.4 67 2.5 S 13 17 7 9 1025.9 1026.1 0.0
19/10:00pm 9.4 4.8 3.8 68 2.4 S 17 20 9 11 1025.7 1025.9 0.0
19/09:30pm 9.7 5.6 4.1 68 2.5 S 15 17 8 9 1025.8 1026.0 0.0
19/09:00pm 10.0 5.9 4.6 69 2.4 S 15 17 8 9 1025.8 1026.0 0.0
19/08:30pm 10.3 5.5 4.5 67 2.6 S 19 22 10 12 1025.6 1025.8 0.0
19/08:00pm 10.5 5.7 4.4 66 2.7 S 19 22 10 12 1025.5 1025.7 0.0
19/07:30pm 10.7 5.7 4.6 66 2.8 S 20 26 11 14 1025.3 1025.5 0.0
19/07:00pm 10.8 6.0 4.5 65 2.8 S 19 24 10 13 1025.0 1025.2 0.0
19/06:30pm 11.2 6.4 4.7 64 3.0 S 19 24 10 13 1024.7 1024.9 0.0
19/06:00pm 11.5 6.8 5.2 65 2.9 S 19 22 10 12 1024.4 1024.6 0.0
19/05:30pm 11.9 6.6 5.1 63 3.1 S 22 28 12 15 1024.1 1024.3 0.0
19/05:00pm 12.3 7.5 5.7 64 3.1 S 20 28 11 15 1023.9 1024.1 0.0
19/04:30pm 12.6 7.1 5.8 63 3.2 S 24 30 13 16 1023.8 1024.0 0.0
19/04:00pm 13.1 8.2 5.0 58 3.8 S 20 26 11 14 1023.6 1023.8 0.0
19/03:30pm 13.3 8.1 5.5 59 3.7 SSE 22 30 12 16 1023.5 1023.7 0.0
19/03:00pm 13.5 8.0 5.7 59 3.7 S 24 30 13 16 1023.4 1023.6 0.0
19/02:30pm 13.8 9.2 5.7 58 3.9 SSE 19 24 10 13 1023.2 1023.4 0.0
19/02:00pm 14.0 9.4 6.4 60 3.7 S 20 26 11 14 1023.3 1023.5 0.0
19/01:30pm 13.8 9.1 6.2 60 3.7 S 20 26 11 14 1023.5 1023.7 0.0
19/01:00pm 13.8 9.6 5.9 59 3.8 S 17 28 9 15 1023.8 1024.0 0.0
19/12:30pm 13.3 8.7 6.4 63 3.3 SSE 20 28 11 15 1024.1 1024.3 0.0
19/12:00pm 12.9 8.9 6.5 65 3.1 SSE 17 26 9 14 1024.5 1024.7 0.0
19/11:30am 12.7 8.3 6.7 67 2.9 SSE 19 24 10 13 1024.8 1025.0 0.0
19/11:00am 11.9 8.3 6.8 71 2.4 SSE 15 22 8 12 1024.9 1025.1 0.0
19/10:30am 11.5 7.6 7.0 74 2.2 S 17 22 9 12 1025.0 1025.2 0.0
19/10:00am 10.8 6.8 6.7 76 1.9 S 17 20 9 11 1024.9 1025.1 0.0
19/09:30am 10.1 5.7 6.6 79 1.7 S 19 24 10 13 1024.8 1025.0 0.0
19/09:00am 9.6 5.9 6.5 81 1.4 S 15 19 8 10 1024.6 1024.8 0.0
19/08:30am 9.0 5.3 6.3 83 1.3 S 15 19 8 10 1024.4 1024.6 0.0
19/08:00am 8.5 5.1 6.0 84 1.1 S 13 17 7 9 1024.1 1024.3 0.0
19/07:30am 8.2 4.0 5.8 85 1.1 S 17 20 9 11 1023.8 1024.0 0.0
19/07:00am 8.1 3.9 5.7 85 1.1 S 17 20 9 11 1023.6 1023.8 0.0
19/06:30am 8.0 3.8 5.6 85 1.1 S 17 24 9 13 1023.4 1023.6 0.0
19/06:00am 7.8 3.2 5.4 85 1.1 S 19 24 10 13 1023.1 1023.3 0.0
19/05:30am 7.7 3.5 5.5 86 1.0 S 17 22 9 12 1023.0 1023.2 0.0
19/05:00am 7.2 2.9 5.2 87 0.9 S 17 20 9 11 1022.9 1023.1 0.0
19/04:30am 7.5 2.8 5.1 85 1.1 S 19 22 10 12 1022.8 1023.0 0.0
19/04:00am 7.8 3.0 5.4 85 1.1 S 20 28 11 15 1022.8 1023.0 0.0
19/03:30am 7.9 4.0 5.5 85 1.1 S 15 20 8 11 1022.9 1023.1 0.0
19/03:00am 8.0 3.8 5.6 85 1.1 S 17 20 9 11 1023.1 1023.3 0.0
19/02:30am 8.2 4.0 5.7 84 1.1 S 17 20 9 11 1023.2 1023.4 0.0
19/02:00am 8.1 3.5 5.6 84 1.1 S 19 24 10 13 1023.2 1023.4 0.0
19/01:30am 8.0 3.8 5.6 85 1.1 S 17 20 9 11 1023.4 1023.6 0.0
19/01:00am 7.6 4.5 5.6 87 0.9 S 11 15 6 8 1023.5 1023.7 0.0
19/12:30am 7.5 4.0 5.3 86 1.0 S 13 17 7 9 1023.5 1023.7 0.0
19/12:00am 7.7 3.8 5.3 85 1.1 S 15 20 8 11 1023.5 1023.7 0.0
 
Date/Time
EST
Temp
°C
App
Temp
°C
Dew
Point
Rel
Hum
%
Delta-T
°C
Wind Press
QNH
hPa
Press
MSL
hPa
Rain
since 9 am
mm
Dir
 
Spd
km/h
Gust
km/h
Spd
kts
Gust
kts
18/11:30pm 8.1 3.8 5.4 83 1.2 S 17 20 9 11 1023.6 1023.8 0.0
18/11:00pm 8.5 4.3 5.6 82 1.3 S 17 20 9 11 1023.7 1023.9 0.0
18/10:30pm 8.2 3.9 5.3 82 1.3 SSW 17 19 9 10 1023.6 1023.8 0.0
18/10:00pm 7.7 3.7 4.7 81 1.3 S 15 19 8 10 1023.5 1023.7 0.0
18/09:30pm 8.2 3.4 4.8 79 1.5 S 19 22 10 12 1023.4 1023.6 0.0
18/09:00pm 8.2 3.4 4.4 77 1.7 SSW 19 20 10 11 1023.4 1023.6 0.0
18/08:30pm 8.7 4.2 4.3 74 1.9 SSW 17 22 9 12 1023.2 1023.4 0.0
18/08:00pm 8.8 4.3 4.4 74 1.9 SSW 17 24 9 13 1022.9 1023.1 0.0
18/07:30pm 9.2 4.3 4.0 70 2.3 SSW 19 24 10 13 1022.6 1022.8 0.0
18/07:00pm 9.4 4.8 3.8 68 2.5 S 17 22 9 12 1022.4 1022.6 0.0
18/06:30pm 9.5 4.9 3.7 67 2.5 S 17 20 9 11 1021.9 1022.0 0.0
18/06:00pm 10.5 5.5 3.5 62 3.1 S 19 26 10 14 1021.6 1021.7 0.0
18/05:30pm 11.4 5.4 3.4 58 3.6 S 24 30 13 16 1021.3 1021.4 0.0
18/05:00pm 12.1 6.5 3.3 55 3.9 S 22 28 12 15 1020.9 1021.0 0.0
18/04:30pm 12.4 6.7 2.8 52 4.2 S 22 30 12 16 1020.8 1020.9 0.0
18/04:00pm 12.6 6.5 3.0 52 4.3 S 24 32 13 17 1020.7 1020.8 0.0
18/03:30pm 12.9 6.9 3.6 53 4.2 S 24 32 13 17 1020.5 1020.7 0.0
18/03:00pm 13.0 6.3 3.7 53 4.2 S 28 35 15 19 1020.4 1020.6 0.0
18/02:30pm 12.5 6.9 3.2 53 4.1 SSE 22 28 12 15 1020.4 1020.6 0.0
18/02:00pm 12.7 7.0 2.6 50 4.4 S 22 30 12 16 1020.5 1020.7 0.0
18/01:30pm 12.7 5.8 2.6 50 4.5 S 28 37 15 20 1020.9 1021.0 0.0
18/01:00pm 12.6 5.9 3.5 54 4.1 S 28 41 15 22 1021.2 1021.3 0.0
18/12:30pm 12.4 5.1 2.6 51 4.3 S 30 41 16 22 1021.6 1021.7 0.0
18/12:00pm 13.0 6.1 2.5 49 4.6 S 28 39 15 21 1021.9 1022.0 0.0
18/11:30am 12.7 6.0 3.9 55 4.0 S 28 35 15 19 1022.2 1022.4 0.0
18/11:00am 11.7 4.5 3.2 56 3.7 S 30 41 16 22 1022.5 1022.7 0.0
18/10:30am 11.4 4.6 2.9 56 3.7 S 28 35 15 19 1022.6 1022.8 0.0
18/10:00am 10.9 4.2 3.5 60 3.3 S 28 43 15 23 1022.6 1022.8 0.0
18/09:30am 10.3 4.1 4.2 66 2.7 SSW 26 32 14 17 1022.6 1022.8 0.0
18/09:00am 8.7 2.8 3.7 71 2.2 SSW 24 30 13 16 1022.5 1022.7 0.0
18/08:30am 7.3 2.0 3.2 75 1.7 SSW 20 26 11 14 1022.4 1022.6 0.0

Other Formats:

Comma delimited format used in spreadsheet applications
http://www.bom.gov.au/fwo/IDV60801/IDV60801.94827.axf

JavaScript Object Notation format (JSON) in row-major order
http://www.bom.gov.au/fwo/IDV60801/IDV60801.94827.json